sensor_id;sensor_type;location;lat;lon;timestamp;P1;durP1;ratioP1;P2;durP2;ratioP2
36353;SDS011;22383;51.114;13.666;2023-02-28T14:55:04;16.00;;;5.28;;
36353;SDS011;22383;51.114;13.666;2023-02-28T14:57:39;13.60;;;5.30;;
36353;SDS011;22383;51.114;13.666;2023-02-28T15:02:44;13.30;;;5.88;;
36353;SDS011;22383;51.114;13.666;2023-02-28T15:07:44;17.08;;;4.90;;
36353;SDS011;22383;51.114;13.666;2023-02-28T15:10:20;14.00;;;5.63;;
36353;SDS011;22383;51.114;13.666;2023-02-28T15:12:53;20.50;;;5.88;;
36353;SDS011;22383;51.114;13.666;2023-02-28T15:18:38;18.30;;;5.75;;
36353;SDS011;22383;51.114;13.666;2023-02-28T15:21:11;9.57;;;4.63;;
36353;SDS011;22383;51.114;13.666;2023-02-28T15:23:54;12.25;;;5.47;;
36353;SDS011;22383;51.114;13.666;2023-02-28T15:26:27;17.05;;;5.20;;
36353;SDS011;22383;51.114;13.666;2023-02-28T15:29:10;14.32;;;5.63;;
36353;SDS011;22383;51.114;13.666;2023-02-28T15:31:52;10.90;;;4.30;;
36353;SDS011;22383;51.114;13.666;2023-02-28T15:34:30;20.42;;;5.47;;
36353;SDS011;22383;51.114;13.666;2023-02-28T15:40:17;10.23;;;4.68;;
36353;SDS011;22383;51.114;13.666;2023-02-28T15:43:25;13.63;;;5.15;;
36353;SDS011;22383;51.114;13.666;2023-02-28T15:46:04;10.57;;;4.18;;
36353;SDS011;22383;51.114;13.666;2023-02-28T15:48:42;11.90;;;5.47;;
36353;SDS011;22383;51.114;13.666;2023-02-28T15:51:18;15.77;;;4.75;;
36353;SDS011;22383;51.114;13.666;2023-02-28T15:53:54;12.88;;;6.20;;
36353;SDS011;22383;51.114;13.666;2023-02-28T15:56:26;11.50;;;5.63;;
36353;SDS011;22383;51.114;13.666;2023-02-28T15:59:22;15.93;;;4.93;;
36353;SDS011;22383;51.114;13.666;2023-02-28T16:04:37;15.43;;;5.07;;
36353;SDS011;22383;51.114;13.666;2023-02-28T16:07:20;12.52;;;5.75;;
36353;SDS011;22383;51.114;13.666;2023-02-28T16:09:47;15.77;;;6.22;;
36353;SDS011;22383;51.114;13.666;2023-02-28T16:12:14;15.95;;;6.75;;
36353;SDS011;22383;51.114;13.666;2023-02-28T16:14:42;9.27;;;4.65;;
36353;SDS011;22383;51.114;13.666;2023-02-28T16:17:20;15.80;;;5.22;;
36353;SDS011;22383;51.114;13.666;2023-02-28T16:19:50;11.23;;;5.22;;
36353;SDS011;22383;51.114;13.666;2023-02-28T16:22:17;19.42;;;5.53;;
36353;SDS011;22383;51.114;13.666;2023-02-28T16:24:44;10.73;;;5.38;;
36353;SDS011;22383;51.114;13.666;2023-02-28T16:27:15;20.80;;;5.50;;
36353;SDS011;22383;51.114;13.666;2023-02-28T16:30:20;14.25;;;4.68;;
36353;SDS011;22383;51.114;13.666;2023-02-28T16:32:50;13.75;;;6.00;;
36353;SDS011;22383;51.114;13.666;2023-02-28T16:35:18;14.98;;;5.65;;
36353;SDS011;22383;51.114;13.666;2023-02-28T16:37:46;11.43;;;4.68;;
36353;SDS011;22383;51.114;13.666;2023-02-28T16:42:51;20.48;;;4.88;;
36353;SDS011;22383;51.114;13.666;2023-02-28T16:45:25;11.27;;;4.65;;
36353;SDS011;22383;51.114;13.666;2023-02-28T16:47:54;12.38;;;4.85;;
36353;SDS011;22383;51.114;13.666;2023-02-28T16:50:23;14.20;;;5.63;;
36353;SDS011;22383;51.114;13.666;2023-02-28T16:52:55;16.10;;;4.75;;
36353;SDS011;22383;51.114;13.666;2023-02-28T16:57:54;11.80;;;3.90;;
36353;SDS011;22383;51.114;13.666;2023-02-28T17:00:23;13.85;;;4.80;;
36353;SDS011;22383;51.114;13.666;2023-02-28T17:02:51;16.27;;;4.53;;
36353;SDS011;22383;51.114;13.666;2023-02-28T17:05:18;13.80;;;6.03;;
36353;SDS011;22383;51.114;13.666;2023-02-28T17:07:46;14.38;;;5.60;;
36353;SDS011;22383;51.114;13.666;2023-02-28T17:10:17;14.98;;;4.70;;
36353;SDS011;22383;51.114;13.666;2023-02-28T17:12:46;9.30;;;4.22;;
36353;SDS011;22383;51.114;13.666;2023-02-28T17:15:14;13.32;;;5.55;;
36353;SDS011;22383;51.114;13.666;2023-02-28T17:17:43;13.63;;;5.03;;
36353;SDS011;22383;51.114;13.666;2023-02-28T17:20:16;14.98;;;5.03;;
36353;SDS011;22383;51.114;13.666;2023-02-28T17:22:49;7.85;;;4.45;;
36353;SDS011;22383;51.114;13.666;2023-02-28T17:25:17;13.73;;;5.35;;
36353;SDS011;22383;51.114;13.666;2023-02-28T17:27:45;16.27;;;6.55;;
36353;SDS011;22383;51.114;13.666;2023-02-28T17:30:16;12.93;;;5.40;;
36353;SDS011;22383;51.114;13.666;2023-02-28T17:32:48;15.55;;;5.10;;
36353;SDS011;22383;51.114;13.666;2023-02-28T17:35:15;11.82;;;4.30;;
36353;SDS011;22383;51.114;13.666;2023-02-28T17:37:43;16.02;;;5.82;;
36353;SDS011;22383;51.114;13.666;2023-02-28T17:40:27;10.18;;;4.43;;
36353;SDS011;22383;51.114;13.666;2023-02-28T17:42:54;11.90;;;5.15;;
36353;SDS011;22383;51.114;13.666;2023-02-28T17:45:23;11.23;;;3.88;;
36353;SDS011;22383;51.114;13.666;2023-02-28T17:47:50;10.65;;;5.15;;
36353;SDS011;22383;51.114;13.666;2023-02-28T17:50:19;12.98;;;5.28;;
36353;SDS011;22383;51.114;13.666;2023-02-28T17:52:48;7.35;;;4.95;;
36353;SDS011;22383;51.114;13.666;2023-02-28T17:55:17;9.93;;;5.32;;
36353;SDS011;22383;51.114;13.666;2023-02-28T17:57:46;16.50;;;4.80;;
36353;SDS011;22383;51.114;13.666;2023-02-28T18:00:14;8.50;;;4.55;;
36353;SDS011;22383;51.114;13.666;2023-02-28T18:02:43;21.58;;;5.63;;
36353;SDS011;22383;51.114;13.666;2023-02-28T18:05:10;14.63;;;4.78;;
36353;SDS011;22383;51.114;13.666;2023-02-28T18:07:38;14.02;;;5.57;;
36353;SDS011;22383;51.114;13.666;2023-02-28T18:10:16;10.57;;;4.38;;
36353;SDS011;22383;51.114;13.666;2023-02-28T18:12:50;13.93;;;4.55;;
36353;SDS011;22383;51.114;13.666;2023-02-28T18:15:18;8.50;;;4.00;;
36353;SDS011;22383;51.114;13.666;2023-02-28T18:17:48;15.05;;;5.57;;
36353;SDS011;22383;51.114;13.666;2023-02-28T18:20:18;15.57;;;5.22;;
36353;SDS011;22383;51.114;13.666;2023-02-28T18:22:46;12.30;;;4.70;;
36353;SDS011;22383;51.114;13.666;2023-02-28T18:25:20;17.80;;;5.55;;
36353;SDS011;22383;51.114;13.666;2023-02-28T18:27:48;13.48;;;5.50;;
36353;SDS011;22383;51.114;13.666;2023-02-28T18:30:26;16.30;;;5.03;;
36353;SDS011;22383;51.114;13.666;2023-02-28T18:32:58;15.50;;;5.28;;
36353;SDS011;22383;51.114;13.666;2023-02-28T18:35:26;15.27;;;4.38;;
36353;SDS011;22383;51.114;13.666;2023-02-28T18:38:14;13.85;;;5.78;;
36353;SDS011;22383;51.114;13.666;2023-02-28T18:40:51;11.52;;;5.18;;
36353;SDS011;22383;51.114;13.666;2023-02-28T18:43:27;10.35;;;4.93;;
36353;SDS011;22383;51.114;13.666;2023-02-28T18:46:02;9.35;;;4.13;;
36353;SDS011;22383;51.114;13.666;2023-02-28T18:48:33;10.70;;;5.35;;
36353;SDS011;22383;51.114;13.666;2023-02-28T18:51:12;13.05;;;6.03;;
36353;SDS011;22383;51.114;13.666;2023-02-28T18:53:41;8.30;;;4.07;;
36353;SDS011;22383;51.114;13.666;2023-02-28T18:56:12;11.68;;;6.07;;
36353;SDS011;22383;51.114;13.666;2023-02-28T18:58:41;9.75;;;4.65;;
36353;SDS011;22383;51.114;13.666;2023-02-28T19:01:22;17.83;;;5.07;;
36353;SDS011;22383;51.114;13.666;2023-02-28T19:06:31;11.32;;;4.78;;
36353;SDS011;22383;51.114;13.666;2023-02-28T19:09:00;14.38;;;6.13;;
36353;SDS011;22383;51.114;13.666;2023-02-28T19:11:29;14.10;;;5.60;;
36353;SDS011;22383;51.114;13.666;2023-02-28T19:13:56;26.90;;;7.97;;
36353;SDS011;22383;51.114;13.666;2023-02-28T19:16:27;16.33;;;7.32;;
36353;SDS011;22383;51.114;13.666;2023-02-28T19:18:57;25.70;;;8.02;;
36353;SDS011;22383;51.114;13.666;2023-02-28T19:21:27;29.10;;;9.63;;
36353;SDS011;22383;51.114;13.666;2023-02-28T19:23:55;28.42;;;10.93;;
36353;SDS011;22383;51.114;13.666;2023-02-28T19:26:22;22.67;;;8.75;;
36353;SDS011;22383;51.114;13.666;2023-02-28T19:28:53;16.63;;;6.57;;
36353;SDS011;22383;51.114;13.666;2023-02-28T19:31:24;13.40;;;6.38;;
36353;SDS011;22383;51.114;13.666;2023-02-28T19:33:53;22.65;;;7.10;;
36353;SDS011;22383;51.114;13.666;2023-02-28T19:36:26;28.05;;;12.13;;
36353;SDS011;22383;51.114;13.666;2023-02-28T19:38:58;27.10;;;9.60;;
36353;SDS011;22383;51.114;13.666;2023-02-28T19:41:30;28.30;;;9.23;;
36353;SDS011;22383;51.114;13.666;2023-02-28T19:43:58;17.15;;;8.57;;
36353;SDS011;22383;51.114;13.666;2023-02-28T19:46:27;20.90;;;8.15;;
36353;SDS011;22383;51.114;13.666;2023-02-28T19:48:55;15.93;;;6.35;;
36353;SDS011;22383;51.114;13.666;2023-02-28T19:51:30;30.25;;;8.07;;
36353;SDS011;22383;51.114;13.666;2023-02-28T19:54:18;29.38;;;9.45;;
36353;SDS011;22383;51.114;13.666;2023-02-28T19:56:49;39.85;;;10.25;;
36353;SDS011;22383;51.114;13.666;2023-02-28T19:59:20;33.40;;;11.30;;
36353;SDS011;22383;51.114;13.666;2023-02-28T20:02:04;33.15;;;9.90;;
36353;SDS011;22383;51.114;13.666;2023-02-28T20:04:52;35.53;;;9.63;;
36353;SDS011;22383;51.114;13.666;2023-02-28T20:07:21;21.35;;;10.27;;
36353;SDS011;22383;51.114;13.666;2023-02-28T20:09:52;19.85;;;8.65;;
36353;SDS011;22383;51.114;13.666;2023-02-28T20:12:19;21.60;;;7.88;;
36353;SDS011;22383;51.114;13.666;2023-02-28T20:14:50;17.88;;;6.57;;
36353;SDS011;22383;51.114;13.666;2023-02-28T20:17:21;15.85;;;6.60;;
36353;SDS011;22383;51.114;13.666;2023-02-28T20:19:51;19.08;;;6.75;;
36353;SDS011;22383;51.114;13.666;2023-02-28T20:22:19;18.95;;;7.90;;
36353;SDS011;22383;51.114;13.666;2023-02-28T20:24:49;14.82;;;5.93;;
36353;SDS011;22383;51.114;13.666;2023-02-28T20:27:22;21.63;;;7.07;;
36353;SDS011;22383;51.114;13.666;2023-02-28T20:29:53;31.55;;;9.13;;
36353;SDS011;22383;51.114;13.666;2023-02-28T20:32:20;22.90;;;8.73;;
36353;SDS011;22383;51.114;13.666;2023-02-28T20:34:47;19.67;;;7.15;;
36353;SDS011;22383;51.114;13.666;2023-02-28T20:37:16;28.52;;;8.48;;
36353;SDS011;22383;51.114;13.666;2023-02-28T20:39:46;22.30;;;8.07;;
36353;SDS011;22383;51.114;13.666;2023-02-28T20:42:15;21.33;;;7.15;;
36353;SDS011;22383;51.114;13.666;2023-02-28T20:44:45;18.42;;;8.57;;
36353;SDS011;22383;51.114;13.666;2023-02-28T20:47:12;17.20;;;8.30;;
36353;SDS011;22383;51.114;13.666;2023-02-28T20:49:40;21.25;;;7.75;;
36353;SDS011;22383;51.114;13.666;2023-02-28T20:52:18;20.20;;;8.50;;
36353;SDS011;22383;51.114;13.666;2023-02-28T20:54:48;18.88;;;7.68;;
36353;SDS011;22383;51.114;13.666;2023-02-28T20:57:15;27.85;;;9.10;;
36353;SDS011;22383;51.114;13.666;2023-02-28T20:59:54;20.55;;;7.28;;
36353;SDS011;22383;51.114;13.666;2023-02-28T21:02:27;22.70;;;8.50;;
36353;SDS011;22383;51.114;13.666;2023-02-28T21:04:55;20.98;;;7.65;;
36353;SDS011;22383;51.114;13.666;2023-02-28T21:07:22;22.98;;;8.27;;
36353;SDS011;22383;51.114;13.666;2023-02-28T21:09:57;21.08;;;8.95;;
36353;SDS011;22383;51.114;13.666;2023-02-28T21:12:33;19.02;;;6.82;;
36353;SDS011;22383;51.114;13.666;2023-02-28T21:15:03;18.85;;;8.35;;
36353;SDS011;22383;51.114;13.666;2023-02-28T21:17:31;14.35;;;7.38;;
36353;SDS011;22383;51.114;13.666;2023-02-28T21:19:58;21.35;;;7.15;;
36353;SDS011;22383;51.114;13.666;2023-02-28T21:22:28;20.23;;;7.00;;
36353;SDS011;22383;51.114;13.666;2023-02-28T21:24:58;28.90;;;8.52;;
36353;SDS011;22383;51.114;13.666;2023-02-28T21:27:34;22.88;;;7.45;;
36353;SDS011;22383;51.114;13.666;2023-02-28T21:30:15;14.95;;;6.18;;
36353;SDS011;22383;51.114;13.666;2023-02-28T21:32:42;13.43;;;5.72;;
36353;SDS011;22383;51.114;13.666;2023-02-28T21:35:10;34.72;;;7.53;;
36353;SDS011;22383;51.114;13.666;2023-02-28T21:37:40;9.57;;;5.80;;
36353;SDS011;22383;51.114;13.666;2023-02-28T21:40:13;13.98;;;5.45;;
36353;SDS011;22383;51.114;13.666;2023-02-28T21:42:40;17.40;;;7.40;;
36353;SDS011;22383;51.114;13.666;2023-02-28T21:45:07;20.13;;;7.70;;
36353;SDS011;22383;51.114;13.666;2023-02-28T21:47:35;14.77;;;7.45;;
36353;SDS011;22383;51.114;13.666;2023-02-28T21:50:02;22.63;;;8.98;;
36353;SDS011;22383;51.114;13.666;2023-02-28T21:52:29;22.80;;;10.68;;
36353;SDS011;22383;51.114;13.666;2023-02-28T21:54:57;18.23;;;8.48;;
36353;SDS011;22383;51.114;13.666;2023-02-28T21:57:24;21.85;;;7.25;;
36353;SDS011;22383;51.114;13.666;2023-02-28T21:59:51;16.98;;;7.40;;
36353;SDS011;22383;51.114;13.666;2023-02-28T22:02:18;15.52;;;7.18;;
36353;SDS011;22383;51.114;13.666;2023-02-28T22:04:45;18.98;;;7.93;;
36353;SDS011;22383;51.114;13.666;2023-02-28T22:07:13;30.10;;;7.40;;
36353;SDS011;22383;51.114;13.666;2023-02-28T22:09:40;19.48;;;7.43;;
36353;SDS011;22383;51.114;13.666;2023-02-28T22:12:10;13.30;;;7.47;;
36353;SDS011;22383;51.114;13.666;2023-02-28T22:14:38;22.63;;;9.00;;
36353;SDS011;22383;51.114;13.666;2023-02-28T22:17:06;25.20;;;9.45;;
36353;SDS011;22383;51.114;13.666;2023-02-28T22:19:33;17.73;;;8.15;;
36353;SDS011;22383;51.114;13.666;2023-02-28T22:22:01;22.90;;;10.32;;
36353;SDS011;22383;51.114;13.666;2023-02-28T22:24:29;24.27;;;9.90;;
36353;SDS011;22383;51.114;13.666;2023-02-28T22:26:56;23.52;;;8.32;;
36353;SDS011;22383;51.114;13.666;2023-02-28T22:29:25;14.35;;;7.03;;
36353;SDS011;22383;51.114;13.666;2023-02-28T22:31:52;15.32;;;6.93;;
36353;SDS011;22383;51.114;13.666;2023-02-28T22:34:19;19.17;;;6.60;;
36353;SDS011;22383;51.114;13.666;2023-02-28T22:36:46;18.75;;;7.20;;
36353;SDS011;22383;51.114;13.666;2023-02-28T22:39:14;26.27;;;7.63;;
36353;SDS011;22383;51.114;13.666;2023-02-28T22:41:42;19.92;;;9.38;;
36353;SDS011;22383;51.114;13.666;2023-02-28T22:44:09;22.45;;;7.90;;
36353;SDS011;22383;51.114;13.666;2023-02-28T22:54:01;15.80;;;5.72;;
36353;SDS011;22383;51.114;13.666;2023-02-28T22:56:30;16.60;;;7.90;;
36353;SDS011;22383;51.114;13.666;2023-02-28T22:58:58;19.42;;;8.50;;
36353;SDS011;22383;51.114;13.666;2023-02-28T23:01:30;12.75;;;6.63;;
36353;SDS011;22383;51.114;13.666;2023-02-28T23:04:00;20.80;;;7.35;;
36353;SDS011;22383;51.114;13.666;2023-02-28T23:06:30;23.88;;;10.05;;
36353;SDS011;22383;51.114;13.666;2023-02-28T23:09:02;27.25;;;9.13;;
36353;SDS011;22383;51.114;13.666;2023-02-28T23:11:33;26.55;;;10.98;;
36353;SDS011;22383;51.114;13.666;2023-02-28T23:14:04;20.83;;;8.38;;
36353;SDS011;22383;51.114;13.666;2023-02-28T23:16:45;19.30;;;8.00;;
36353;SDS011;22383;51.114;13.666;2023-02-28T23:19:18;22.92;;;9.02;;
36353;SDS011;22383;51.114;13.666;2023-02-28T23:21:48;28.20;;;10.73;;
36353;SDS011;22383;51.114;13.666;2023-02-28T23:24:19;18.85;;;7.10;;
36353;SDS011;22383;51.114;13.666;2023-02-28T23:26:49;20.00;;;8.65;;
36353;SDS011;22383;51.114;13.666;2023-02-28T23:29:18;24.13;;;7.60;;
36353;SDS011;22383;51.114;13.666;2023-02-28T23:31:47;24.38;;;8.55;;
36353;SDS011;22383;51.114;13.666;2023-02-28T23:34:16;19.50;;;8.40;;
36353;SDS011;22383;51.114;13.666;2023-02-28T23:36:53;24.58;;;10.80;;
36353;SDS011;22383;51.114;13.666;2023-02-28T23:39:20;22.95;;;10.35;;
36353;SDS011;22383;51.114;13.666;2023-02-28T23:41:51;32.53;;;11.30;;
36353;SDS011;22383;51.114;13.666;2023-02-28T23:44:18;24.92;;;8.02;;
36353;SDS011;22383;51.114;13.666;2023-02-28T23:46:48;18.60;;;7.85;;
36353;SDS011;22383;51.114;13.666;2023-02-28T23:49:17;20.65;;;7.68;;
36353;SDS011;22383;51.114;13.666;2023-02-28T23:51:49;17.38;;;8.48;;
36353;SDS011;22383;51.114;13.666;2023-02-28T23:54:20;12.55;;;6.55;;
36353;SDS011;22383;51.114;13.666;2023-02-28T23:56:47;20.27;;;9.40;;
36353;SDS011;22383;51.114;13.666;2023-02-28T23:59:15;19.98;;;8.73;;
